Time;durP1;ratioP1;P1;durP2;ratioP2;P2;SDS_P1;SDS_P2;PMS_P1;PMS_P2;Temp;Humidity;BMP_temperature;BMP_pressure;BME280_temperature;BME280_humidity;BME280_pressure;Samples;Min_cycle;Max_cycle;Signal;HPM_P1;HPM_P2
2022/06/22 00:00:11;;;;;;;305.80;13.82;;;6.10;1.00;;;;;;5074469;28;20045;-24
2022/06/22 00:02:42;;;;;;;285.38;12.27;;;6.10;1.00;;;;;;5074459;28;20092;-24
2022/06/22 00:05:16;;;;;;;373.65;15.43;;;6.00;1.00;;;;;;5073462;28;20478;-24
2022/06/22 00:07:50;;;;;;;339.98;15.68;;;5.90;1.00;;;;;;5074277;28;20143;-24
2022/06/22 00:10:15;;;;;;;;;;;5.80;1.00;;;;;;5074625;28;20052;-24
2022/06/22 00:12:41;;;;;;;260.33;12.50;;;5.80;1.00;;;;;;5074083;28;19927;-24
2022/06/22 00:15:22;;;;;;;240.77;14.57;;;5.80;1.00;;;;;;5074235;28;20044;-24
2022/06/22 00:17:48;;;;;;;116.32;9.57;;;5.80;1.00;;;;;;5074224;28;20048;-24
2022/06/22 00:20:24;;;;;;;156.25;12.82;;;5.80;1.00;;;;;;5074919;28;20094;-24
2022/06/22 00:22:53;;;;;;;289.55;17.60;;;5.90;1.00;;;;;;5074944;28;20132;-24
2022/06/22 00:25:31;;;;;;;145.85;10.43;;;5.80;1.00;;;;;;5074070;28;20131;-24
2022/06/22 00:28:27;;;;;;;155.50;11.25;;;5.80;1.00;;;;;;5074059;28;20087;-24
2022/06/22 00:31:03;;;;;;;56.55;7.05;;;5.70;1.00;;;;;;5074016;28;20406;-24
2022/06/22 00:33:29;;;;;;;79.15;8.45;;;5.70;1.00;;;;;;5073561;28;20048;-24
2022/06/22 00:36:01;;;;;;;77.68;9.15;;;5.70;1.00;;;;;;5074725;28;20048;-24
2022/06/22 00:38:30;;;;;;;87.25;7.85;;;5.60;1.00;;;;;;5073820;28;20044;-24
2022/06/22 00:41:14;;;;;;;94.82;8.18;;;5.50;1.00;;;;;;5073845;28;20056;-24
2022/06/22 00:43:40;;;;;;;9.90;5.70;;;5.40;1.00;;;;;;5074675;28;20378;-24
2022/06/22 00:46:19;;;;;;;52.00;5.18;;;5.40;1.00;;;;;;5073774;28;20044;-24
2022/06/22 00:48:48;;;;;;;30.23;4.18;;;5.30;1.00;;;;;;5074096;28;20082;-24
2022/06/22 00:51:21;;;;;;;80.25;8.32;;;5.20;1.00;;;;;;5073736;28;20521;-24
2022/06/22 00:53:58;;;;;;;140.60;10.13;;;5.20;1.00;;;;;;5074192;28;20044;-24
2022/06/22 00:56:36;;;;;;;24.60;6.40;;;5.20;1.00;;;;;;5073816;28;20049;-24
2022/06/22 00:59:28;;;;;;;20.20;8.32;;;5.20;1.00;;;;;;5072865;28;20091;-24
2022/06/22 01:02:48;;;;;;;12.50;8.27;;;5.20;13.20;;;;;;5073846;28;20044;-24
2022/06/22 01:05:40;;;;;;;10.98;6.13;;;5.30;68.60;;;;;;5035411;28;20057;-24
2022/06/22 01:08:15;;;;;;;82.32;12.55;;;5.40;60.00;;;;;;5072858;28;20052;-24
2022/06/22 01:10:45;;;;;;;72.18;13.48;;;5.30;21.60;;;;;;5073436;28;20092;-24
2022/06/22 01:13:19;;;;;;;82.28;12.82;;;5.30;48.00;;;;;;5073508;28;20036;-24
2022/06/22 01:16:03;;;;;;;319.42;24.50;;;5.40;48.10;;;;;;5073516;28;20091;-24
2022/06/22 01:18:31;;;;;;;;;;;5.50;66.80;;;;;;5074187;28;20118;-24
2022/06/22 01:21:00;;;;;;;193.85;16.67;;;5.50;99.90;;;;;;5073434;28;19920;-24
2022/06/22 01:23:54;;;;;;;377.73;21.65;;;5.40;84.70;;;;;;5073342;28;20045;-24
2022/06/22 01:26:37;;;;;;;275.73;16.33;;;5.40;33.90;;;;;;5072830;28;20048;-24
2022/06/22 01:29:13;;;;;;;186.38;11.80;;;5.30;5.90;;;;;;5073498;28;20475;-24
2022/06/22 01:31:59;;;;;;;235.38;19.45;;;5.30;24.50;;;;;;5072957;28;20071;-24
2022/06/22 01:34:28;;;;;;;171.93;10.88;;;5.30;25.80;;;;;;5071656;28;20049;-24
2022/06/22 01:37:04;;;;;;;238.15;13.68;;;5.30;10.40;;;;;;5072191;28;20095;-24
2022/06/22 01:39:30;;;;;;;313.45;16.75;;;5.30;21.70;;;;;;5074144;28;20080;-24
2022/06/22 01:41:58;;;;;;;200.63;19.15;;;5.30;46.00;;;;;;5073193;28;20521;-24
2022/06/22 01:44:35;;;;;;;111.38;13.48;;;5.30;95.60;;;;;;5073468;28;20152;-24
2022/06/22 01:47:10;;;;;;;46.00;10.00;;;5.40;99.90;;;;;;5074273;28;20131;-24
2022/06/22 01:49:57;;;;;;;124.53;11.15;;;5.40;99.90;;;;;;5073284;28;20483;-24
2022/06/22 01:52:46;;;;;;;142.15;12.82;;;5.50;99.90;;;;;;5073357;28;20045;-24
2022/06/22 01:55:46;;;;;;;196.52;15.05;;;5.50;99.90;;;;;;5053257;28;20110;-24
2022/06/22 01:58:14;;;;;;;20.88;9.55;;;5.60;99.90;;;;;;5059352;28;20060;-24
2022/06/22 02:00:46;;;;;;;13.45;9.65;;;5.60;99.90;;;;;;5073064;28;20049;-24
2022/06/22 02:03:24;;;;;;;9.75;8.13;;;5.60;99.90;;;;;;5072905;28;20131;-24
2022/06/22 02:05:53;;;;;;;27.17;10.75;;;5.60;99.90;;;;;;5073070;28;20041;-24
2022/06/22 02:08:40;;;;;;;17.70;8.23;;;5.60;99.90;;;;;;5072021;28;20504;-23
2022/06/22 02:11:18;;;;;;;15.15;9.30;;;5.70;99.90;;;;;;5074335;28;20056;-24
2022/06/22 02:14:03;;;;;;;15.38;9.65;;;5.70;99.90;;;;;;5077063;28;20431;-24
2022/06/22 02:16:47;;;;;;;35.45;8.60;;;5.70;99.90;;;;;;5076512;28;20056;-24
2022/06/22 02:19:16;;;;;;;70.13;14.98;;;5.80;99.90;;;;;;5076813;28;20430;-24
2022/06/22 02:22:02;;;;;;;45.17;15.05;;;5.90;99.90;;;;;;5076417;28;20051;-24
2022/06/22 02:24:54;;;;;;;28.20;12.45;;;6.00;99.90;;;;;;5076159;28;20472;-24
2022/06/22 02:27:29;;;;;;;39.10;11.57;;;6.00;99.90;;;;;;5073884;28;20563;-24
2022/06/22 02:29:58;;;;;;;17.20;11.00;;;6.00;99.90;;;;;;5075769;28;20111;-24
2022/06/22 02:32:30;;;;;;;19.23;11.85;;;6.10;99.90;;;;;;5075998;28;20486;-24
2022/06/22 02:34:56;;;;;;;19.35;12.43;;;6.10;99.90;;;;;;5076769;28;20056;-24
2022/06/22 02:37:25;;;;;;;20.70;12.40;;;6.10;99.90;;;;;;5075125;28;20052;-24
2022/06/22 02:39:58;;;;;;;20.90;12.93;;;6.10;99.90;;;;;;5076097;28;20387;-24
2022/06/22 02:45:10;;;;;;;16.42;9.15;;;6.30;1.00;;;;;;5076598;28;20158;-24
2022/06/22 02:47:54;;;;;;;20.35;8.50;;;6.30;1.00;;;;;;5076451;28;20052;-24
2022/06/22 02:50:34;;;;;;;26.02;10.35;;;6.30;1.00;;;;;;5075162;28;20049;-24
2022/06/22 02:53:05;;;;;;;23.40;13.30;;;6.30;1.00;;;;;;5075787;28;20532;-24
2022/06/22 02:55:34;;;;;;;77.90;16.98;;;6.30;1.00;;;;;;5074857;28;20501;-24
2022/06/22 02:58:02;;;;;;;231.85;25.35;;;6.40;1.00;;;;;;5075775;28;20049;-24
2022/06/22 03:00:33;;;;;;;146.38;14.85;;;6.50;1.00;;;;;;5076508;28;20048;-24
2022/06/22 03:03:09;;;;;;;72.07;14.80;;;6.50;1.00;;;;;;5075255;28;20193;-23
2022/06/22 03:05:37;;;;;;;261.05;22.73;;;6.50;1.00;;;;;;5076243;28;20423;-24
2022/06/22 03:08:04;;;;;;;328.25;25.33;;;6.50;1.00;;;;;;5074609;28;20048;-23
2022/06/22 03:10:34;;;;;;;242.27;19.98;;;6.50;1.00;;;;;;5074509;28;20470;-23
2022/06/22 03:13:00;;;;;;;188.98;15.60;;;6.50;1.00;;;;;;5075269;28;20063;-23
2022/06/22 03:15:31;;;;;;;273.10;22.88;;;6.40;1.00;;;;;;5075405;28;20554;-23
2022/06/22 03:17:59;;;;;;;148.13;16.05;;;6.40;1.00;;;;;;5075375;28;20088;-23
2022/06/22 03:20:30;;;;;;;270.65;21.33;;;6.30;1.00;;;;;;5075308;28;20180;-23
2022/06/22 03:23:05;;;;;;;120.68;15.13;;;6.30;1.00;;;;;;5075288;28;20047;-23
2022/06/22 03:25:45;;;;;;;143.68;15.30;;;6.30;1.00;;;;;;5075251;28;20098;-23
2022/06/22 03:28:16;;;;;;;289.25;25.77;;;6.30;1.00;;;;;;5075187;28;20127;-23
2022/06/22 03:30:48;;;;;;;219.52;21.95;;;6.30;1.00;;;;;;5075987;28;20127;-23
2022/06/22 03:33:21;;;;;;;76.88;15.30;;;6.50;1.00;;;;;;5075579;28;20045;-23
2022/06/22 03:35:55;;;;;;;38.42;13.88;;;6.40;1.00;;;;;;5075056;28;20051;-23
2022/06/22 03:38:27;;;;;;;104.38;17.33;;;6.50;1.00;;;;;;5075598;28;20049;-22
2022/06/22 03:40:57;;;;;;;120.15;18.90;;;6.50;6.10;;;;;;5074796;28;20083;-23
2022/06/22 03:43:39;;;;;;;389.73;38.90;;;6.50;38.40;;;;;;5074855;28;20032;-23
2022/06/22 03:46:11;;;;;;;127.15;23.00;;;6.60;81.50;;;;;;5075457;28;20065;-22
2022/06/22 03:48:57;;;;;;;210.82;20.75;;;6.60;99.90;;;;;;5074786;28;20505;-22
2022/06/22 03:51:30;;;;;;;426.38;31.40;;;6.70;99.90;;;;;;5074755;28;20054;-22
2022/06/22 03:54:05;;;;;;;618.50;47.08;;;6.80;99.90;;;;;;5057137;28;20044;-22
2022/06/22 03:56:39;;;;;;;363.95;31.30;;;6.90;99.90;;;;;;5074054;28;20407;-22
2022/06/22 03:59:05;;;;;;;337.08;28.85;;;7.00;99.90;;;;;;5074547;28;20052;-22
2022/06/22 04:01:32;;;;;;;585.25;44.83;;;7.10;99.90;;;;;;5074487;28;20048;-22
2022/06/22 04:03:58;;;;;;;257.30;24.85;;;7.20;99.90;;;;;;5075048;28;20064;-22
2022/06/22 04:06:26;;;;;;;474.35;39.58;;;7.20;99.90;;;;;;5075211;28;20056;-22
2022/06/22 04:08:52;;;;;;;314.52;37.42;;;7.30;99.90;;;;;;5075132;28;20048;-22
2022/06/22 04:11:56;;;;;;;218.50;31.58;;;7.40;99.90;;;;;;5074558;28;20390;-22
2022/06/22 04:14:30;;;;;;;109.30;19.48;;;7.40;99.90;;;;;;5032646;28;20455;-22
2022/06/22 04:17:00;;;;;;;76.07;18.23;;;7.50;99.90;;;;;;5064780;28;20529;-22
2022/06/22 04:19:40;;;;;;;70.32;18.50;;;7.60;99.90;;;;;;5073897;28;20494;-22
2022/06/22 04:22:15;;;;;;;112.28;25.10;;;7.60;99.90;;;;;;5073197;28;20497;-22
2022/06/22 04:24:52;;;;;;;165.18;27.58;;;7.80;99.90;;;;;;5074744;28;20086;-22
2022/06/22 04:27:35;;;;;;;307.33;34.97;;;7.90;99.90;;;;;;5073909;28;20071;-22
2022/06/22 04:30:21;;;;;;;67.63;18.30;;;8.00;99.90;;;;;;5074168;28;20080;-22
2022/06/22 04:33:05;;;;;;;34.25;15.77;;;8.00;99.90;;;;;;5074363;28;20048;-22
2022/06/22 04:35:33;;;;;;;;;;;8.10;99.90;;;;;;5074406;28;20482;-22
2022/06/22 04:38:12;;;;;;;61.58;17.15;;;8.20;99.90;;;;;;5074720;28;19924;-22
2022/06/22 04:40:56;;;;;;;35.40;17.25;;;8.30;99.90;;;;;;5074181;28;20044;-22
2022/06/22 04:43:23;;;;;;;18.67;13.10;;;8.40;99.90;;;;;;5073860;28;20037;-22
2022/06/22 04:45:49;;;;;;;25.15;15.70;;;8.50;99.90;;;;;;5072541;28;20048;-22
2022/06/22 04:48:22;;;;;;;31.98;17.85;;;8.60;99.90;;;;;;5073731;28;20498;-22
2022/06/22 04:50:51;;;;;;;35.13;17.58;;;8.80;99.90;;;;;;5073040;28;20045;-22
2022/06/22 04:53:26;;;;;;;26.02;17.02;;;8.90;99.90;;;;;;5072728;28;20048;-22
2022/06/22 04:55:52;;;;;;;35.00;21.63;;;9.10;99.90;;;;;;5074012;28;20052;-22
2022/06/22 04:58:36;;;;;;;43.50;23.27;;;9.30;99.90;;;;;;5073744;28;20048;-22
2022/06/22 05:01:03;;;;;;;;;;;9.50;99.90;;;;;;5074689;28;20381;-22
2022/06/22 05:03:29;;;;;;;46.95;25.63;;;9.90;99.90;;;;;;5071859;28;20263;-22
2022/06/22 05:06:01;;;;;;;43.92;25.38;;;10.70;99.90;;;;;;5073608;28;20127;-22
2022/06/22 05:08:36;;;;;;;44.70;26.35;;;11.50;99.90;;;;;;5073875;28;20091;-22
2022/06/22 05:11:29;;;;;;;38.60;22.38;;;12.30;99.90;;;;;;5073616;28;20075;-23
2022/06/22 05:13:58;;;;;;;29.52;19.25;;;13.40;99.90;;;;;;5074357;28;20048;-23
2022/06/22 05:16:27;;;;;;;31.33;22.80;;;14.40;99.90;;;;;;5073488;28;20055;-22
2022/06/22 05:18:56;;;;;;;28.30;19.90;;;15.10;54.10;;;;;;5073405;28;20494;-23
2022/06/22 05:21:37;;;;;;;25.73;18.80;;;15.70;99.90;;;;;;5073416;28;20049;-23
2022/06/22 05:24:32;;;;;;;25.90;19.52;;;16.40;1.00;;;;;;5072362;28;20045;-23
2022/06/22 05:27:00;;;;;;;22.30;15.20;;;17.00;99.90;;;;;;5071972;28;20131;-23
2022/06/22 05:29:41;;;;;;;19.35;14.80;;;17.40;21.70;;;;;;5072186;28;20429;-23
2022/06/22 05:32:23;;;;;;;17.55;14.43;;;17.60;1.00;;;;;;5074216;28;20048;-23
2022/06/22 05:34:53;;;;;;;20.05;14.80;;;17.70;99.90;;;;;;5074164;28;20036;-23
2022/06/22 05:37:31;;;;;;;19.30;14.52;;;18.00;99.90;;;;;;5073578;28;20127;-23
2022/06/22 05:39:58;;;;;;;18.48;13.75;;;18.30;99.90;;;;;;5073069;28;20587;-23
2022/06/22 05:42:25;;;;;;;15.90;13.05;;;18.60;31.60;;;;;;5073248;28;20106;-23
2022/06/22 05:44:53;;;;;;;19.08;13.82;;;18.90;1.00;;;;;;5073765;28;20051;-23
2022/06/22 05:47:33;;;;;;;21.33;13.95;;;19.30;1.00;;;;;;5076133;28;20092;-23
2022/06/22 05:50:29;;;;;;;16.05;13.77;;;19.50;1.00;;;;;;5077644;28;20359;-23
2022/06/22 05:53:02;;;;;;;15.75;13.73;;;19.70;99.90;;;;;;5076975;28;20040;-23
2022/06/22 05:55:32;;;;;;;;;;;20.00;99.90;;;;;;5077398;28;20048;-23
2022/06/22 05:58:16;;;;;;;16.95;12.35;;;19.90;99.90;;;;;;5076537;28;20382;-23
2022/06/22 06:00:47;;;;;;;16.38;12.80;;;20.30;99.90;;;;;;5076203;28;20443;-23
2022/06/22 06:03:23;;;;;;;16.63;11.85;;;20.40;99.90;;;;;;5076512;28;20063;-23
2022/06/22 06:05:52;;;;;;;15.02;11.98;;;20.80;99.90;;;;;;5077344;28;20048;-23
2022/06/22 06:08:18;;;;;;;23.15;13.50;;;21.00;99.90;;;;;;5077526;28;20070;-23
2022/06/22 06:10:44;;;;;;;16.23;12.38;;;21.10;99.90;;;;;;5076901;28;20048;-23
2022/06/22 06:13:16;;;;;;;15.43;11.85;;;21.30;99.90;;;;;;5076599;28;20036;-24
2022/06/22 06:15:45;;;;;;;13.60;11.18;;;21.40;99.90;;;;;;5076577;28;20379;-23
2022/06/22 06:18:18;;;;;;;13.50;9.43;;;21.60;99.90;;;;;;5077043;28;20097;-24
2022/06/22 06:20:48;;;;;;;12.13;9.00;;;21.70;32.40;;;;;;5075297;28;20517;-24
2022/06/22 06:23:32;;;;;;;10.63;8.57;;;21.90;1.00;;;;;;5076416;28;20036;-24
2022/06/22 06:28:57;;;;;;;12.32;8.57;;;21.90;1.00;;;;;;5076059;28;20520;-24
2022/06/22 06:31:48;;;;;;;13.15;7.53;;;22.00;1.00;;;;;;5076877;28;20044;-24
2022/06/22 06:34:18;;;;;;;13.95;8.43;;;22.10;1.00;;;;;;5057530;28;20395;-24
2022/06/22 06:37:37;;;;;;;13.60;7.47;;;22.20;1.00;;;;;;5076812;28;20414;-24
2022/06/22 06:40:03;;;;;;;10.63;6.05;;;22.30;1.00;;;;;;5066801;28;20048;-24
2022/06/22 06:42:51;;;;;;;8.52;5.70;;;22.60;1.00;;;;;;5076113;28;20041;-24
2022/06/22 06:45:22;;;;;;;10.48;5.80;;;22.30;99.90;;;;;;5076887;28;20047;-24
2022/06/22 06:47:51;;;;;;;8.18;5.72;;;22.30;99.90;;;;;;5076635;28;20056;-24
2022/06/22 06:50:28;;;;;;;9.23;5.70;;;22.30;99.90;;;;;;5075924;28;20044;-24
2022/06/22 06:53:21;;;;;;;11.65;5.88;;;22.20;99.90;;;;;;5075268;28;20040;-24
2022/06/22 06:55:56;;;;;;;8.35;4.28;;;22.20;99.90;;;;;;5075475;28;20041;-24
2022/06/22 06:59:10;;;;;;;8.05;4.20;;;22.30;99.90;;;;;;5075145;28;20079;-24
2022/06/22 07:01:39;;;;;;;9.40;3.80;;;22.20;99.90;;;;;;5070452;28;20068;-24
2022/06/22 07:04:17;;;;;;;7.10;3.42;;;22.20;99.90;;;;;;5074269;28;20049;-24
2022/06/22 07:06:44;;;;;;;8.60;4.10;;;22.50;99.90;;;;;;5057691;28;20052;-24
2022/06/22 07:09:30;;;;;;;10.20;3.63;;;22.40;99.90;;;;;;5075590;28;20036;-24
2022/06/22 07:12:21;;;;;;;7.82;3.53;;;22.70;99.90;;;;;;5075459;28;20052;-24
2022/06/22 07:14:47;;;;;;;9.85;4.35;;;23.00;25.70;;;;;;5076054;28;20048;-24
2022/06/22 07:17:20;;;;;;;9.15;5.18;;;23.10;62.30;;;;;;5075671;28;20051;-24
2022/06/22 07:19:58;;;;;;;9.60;4.80;;;22.80;57.70;;;;;;5075385;28;20105;-24
2022/06/22 07:22:40;;;;;;;9.00;4.25;;;22.70;73.80;;;;;;5075345;28;20047;-24
2022/06/22 07:25:32;;;;;;;9.93;4.72;;;22.70;37.60;;;;;;5075536;28;20451;-24
2022/06/22 07:28:00;;;;;;;7.55;4.10;;;22.60;16.50;;;;;;5075846;28;20059;-24
2022/06/22 07:30:59;;;;;;;8.02;4.03;;;22.90;42.20;;;;;;5075124;28;20051;-24
2022/06/22 07:33:33;;;;;;;8.10;4.70;;;22.90;3.20;;;;;;5073741;28;20486;-24
2022/06/22 07:36:11;;;;;;;9.88;4.65;;;23.30;20.00;;;;;;5075367;28;20560;-24
2022/06/22 07:38:43;;;;;;;7.53;4.13;;;23.70;11.70;;;;;;5075044;28;20055;-24
2022/06/22 07:41:23;;;;;;;9.13;4.63;;;24.00;1.00;;;;;;5074626;28;20509;-24
2022/06/22 07:44:21;;;;;;;7.57;4.40;;;23.70;1.00;;;;;;5074928;28;20040;-25
2022/06/22 07:47:00;;;;;;;9.40;4.53;;;24.10;1.00;;;;;;5073663;28;20040;-25
2022/06/22 07:49:35;;;;;;;8.85;5.03;;;23.90;1.00;;;;;;5075322;28;20051;-25
2022/06/22 07:52:05;;;;;;;8.93;4.95;;;23.50;1.00;;;;;;5075332;28;20044;-25
2022/06/22 07:54:40;;;;;;;9.18;5.30;;;23.40;10.90;;;;;;5074584;28;20049;-25
2022/06/22 07:57:21;;;;;;;9.98;4.40;;;23.30;1.00;;;;;;5074668;28;20044;-25
2022/06/22 07:59:58;;;;;;;8.32;4.95;;;23.40;1.00;;;;;;5074192;28;20402;-25
2022/06/22 08:02:49;;;;;;;11.82;4.60;;;23.80;1.00;;;;;;5074776;28;20045;-25
2022/06/22 08:05:20;;;;;;;9.40;4.75;;;23.90;1.00;;;;;;5063912;28;20056;-25
2022/06/22 08:08:16;;;;;;;7.47;4.90;;;24.10;1.00;;;;;;5073500;28;20529;-25
2022/06/22 08:11:06;;;;;;;11.02;5.63;;;24.30;1.00;;;;;;5074415;28;20048;-25
2022/06/22 08:13:57;;;;;;;9.60;4.30;;;24.50;1.00;;;;;;5074798;28;20080;-25
2022/06/22 08:16:28;;;;;;;8.30;4.13;;;24.80;1.00;;;;;;5073919;28;20099;-25
2022/06/22 08:18:55;;;;;;;10.75;4.43;;;24.50;1.00;;;;;;5075132;28;20052;-25
2022/06/22 08:21:22;;;;;;;10.65;4.75;;;24.20;1.00;;;;;;5074723;28;20041;-25
2022/06/22 08:23:49;;;;;;;9.57;4.30;;;23.90;1.00;;;;;;5074086;28;20102;-25
2022/06/22 08:26:22;;;;;;;8.32;4.15;;;23.50;1.00;;;;;;5074071;28;20088;-25
2022/06/22 08:28:49;;;;;;;7.60;3.60;;;23.60;1.00;;;;;;5074106;28;20130;-25
2022/06/22 08:31:15;;;;;;;11.30;3.72;;;23.70;1.00;;;;;;5072851;28;20447;-25
2022/06/22 08:33:46;;;;;;;11.88;4.13;;;23.70;1.00;;;;;;5072722;28;20037;-25
2022/06/22 08:36:26;;;;;;;8.82;4.15;;;23.70;1.00;;;;;;5074023;28;20051;-25
2022/06/22 08:39:18;;;;;;;8.00;4.03;;;23.70;1.00;;;;;;5073366;28;20433;-25
2022/06/22 08:42:05;;;;;;;7.65;3.67;;;24.10;1.00;;;;;;5074489;28;20041;-25
2022/06/22 08:44:52;;;;;;;7.43;3.58;;;24.10;1.00;;;;;;5074434;28;20037;-25
2022/06/22 08:48:00;;;;;;;9.98;4.55;;;24.20;1.00;;;;;;5072828;28;20044;-25
2022/06/22 08:50:34;;;;;;;6.40;3.33;;;24.30;1.00;;;;;;5063670;28;20414;-25
2022/06/22 08:53:14;;;;;;;11.02;3.88;;;24.50;1.00;;;;;;5073655;28;20131;-25
2022/06/22 08:56:07;;;;;;;8.88;3.63;;;24.50;99.90;;;;;;5074047;28;20123;-25
2022/06/22 08:58:52;;;;;;;;;;;24.70;99.90;;;;;;5074149;28;20045;-25
2022/06/22 09:01:44;;;;;;;9.38;4.00;;;24.40;1.00;;;;;;5074168;28;19924;-25
2022/06/22 09:04:28;;;;;;;7.97;3.53;;;24.30;99.90;;;;;;5073941;28;20057;-26
2022/06/22 09:07:12;;;;;;;10.60;3.50;;;24.30;1.00;;;;;;5073333;28;20044;-26
2022/06/22 09:09:42;;;;;;;10.13;4.13;;;24.70;1.00;;;;;;5074138;28;20045;-26
2022/06/22 09:12:22;;;;;;;8.13;3.33;;;25.10;99.90;;;;;;5072486;28;20478;-26
2022/06/22 09:15:00;;;;;;;9.93;3.75;;;25.10;99.90;;;;;;5073568;28;20040;-26
2022/06/22 09:17:31;;;;;;;12.35;5.00;;;24.80;99.90;;;;;;5073495;28;20052;-26
2022/06/22 09:20:25;;;;;;;9.43;4.28;;;24.40;99.90;;;;;;5075921;28;20127;-26
2022/06/22 09:22:59;;;;;;;10.55;3.97;;;24.70;99.90;;;;;;5077638;28;20040;-26
2022/06/22 09:25:41;;;;;;;10.35;4.07;;;24.80;99.90;;;;;;5077535;28;20485;-26
2022/06/22 09:28:24;;;;;;;12.33;3.87;;;24.80;99.90;;;;;;5078201;28;20067;-26
2022/06/22 09:30:56;;;;;;;8.82;4.03;;;24.80;99.90;;;;;;5077532;28;20275;-26
2022/06/22 09:33:32;;;;;;;9.18;4.35;;;24.70;99.90;;;;;;5077671;28;20084;-26
2022/06/22 09:36:33;;;;;;;10.45;4.40;;;24.60;99.90;;;;;;5077651;28;20051;-26
2022/06/22 09:39:29;;;;;;;8.35;3.60;;;24.50;99.90;;;;;;5068868;28;20052;-26
2022/06/22 09:42:26;;;;;;;10.90;4.22;;;25.00;99.90;;;;;;5078091;28;20052;-26
2022/06/22 09:45:21;;;;;;;9.27;3.65;;;24.80;99.90;;;;;;5077148;28;20062;-26
2022/06/22 09:48:12;;;;;;;12.35;4.05;;;25.00;99.90;;;;;;5077446;28;20044;-26
2022/06/22 09:50:45;;;;;;;8.73;3.35;;;25.60;99.90;;;;;;5076700;28;20048;-26
2022/06/22 09:53:38;;;;;;;8.82;3.53;;;26.00;99.90;;;;;;5076955;28;20040;-26
2022/06/22 09:56:30;;;;;;;8.90;3.90;;;26.20;99.90;;;;;;5076729;28;20529;-26
2022/06/22 09:59:14;;;;;;;12.15;3.85;;;26.10;99.90;;;;;;5076949;28;20044;-26
2022/06/22 10:02:17;;;;;;;12.70;4.45;;;26.00;99.90;;;;;;5076804;28;20127;-26
2022/06/22 10:05:20;;;;;;;9.67;4.37;;;25.70;99.90;;;;;;5076831;28;20114;-26
2022/06/22 10:08:07;;;;;;;9.65;4.15;;;25.90;99.90;;;;;;5076550;28;20286;-26
2022/06/22 10:10:58;;;;;;;10.05;4.32;;;26.10;99.90;;;;;;5076701;28;20048;-26
2022/06/22 10:13:55;;;;;;;10.98;3.63;;;26.40;99.90;;;;;;5077332;28;20072;-26
2022/06/22 10:16:30;;;;;;;8.93;3.65;;;26.60;99.90;;;;;;5077460;28;20125;-26
2022/06/22 10:19:17;;;;;;;11.57;4.07;;;26.40;99.90;;;;;;5076577;28;20105;-26
2022/06/22 10:22:04;;;;;;;10.02;4.68;;;25.60;99.90;;;;;;5076089;28;20386;-26
2022/06/22 10:24:41;;;;;;;9.63;4.45;;;25.00;99.90;;;;;;5076508;28;20057;-26
2022/06/22 10:27:25;;;;;;;13.15;4.03;;;25.00;99.90;;;;;;5077242;28;20442;-26
2022/06/22 10:30:58;;;;;;;10.90;4.03;;;25.70;99.90;;;;;;5075410;28;20143;-27
2022/06/22 10:33:45;;;;;;;8.07;4.05;;;26.50;99.90;;;;;;4995158;28;20105;-26
2022/06/22 10:36:40;;;;;;;9.32;3.40;;;27.00;99.90;;;;;;5070545;28;20084;-26
2022/06/22 10:39:32;;;;;;;8.32;3.80;;;28.00;99.90;;;;;;5059374;28;20112;-26
2022/06/22 10:45:25;;;;;;;8.85;3.33;;;28.60;99.90;;;;;;5076119;28;20053;-27
2022/06/22 10:48:11;;;;;;;10.60;4.10;;;28.30;99.90;;;;;;5076608;28;20049;-26
2022/06/22 10:50:52;;;;;;;8.45;4.05;;;28.20;99.90;;;;;;5076540;28;20045;-26
2022/06/22 10:53:55;;;;;;;8.45;4.90;;;27.10;99.90;;;;;;5075825;28;20479;-26
2022/06/22 10:56:57;;;;;;;7.53;3.60;;;26.20;99.90;;;;;;5075867;28;20040;-26
2022/06/22 10:59:48;;;;;;;7.55;4.82;;;25.00;99.90;;;;;;5075873;28;20045;-26
2022/06/22 11:02:32;;;;;;;10.23;4.90;;;24.20;99.90;;;;;;5075785;28;20048;-26
2022/06/22 11:05:16;;;;;;;10.18;4.88;;;23.50;99.90;;;;;;5075715;28;20105;-27
2022/06/22 11:08:18;;;;;;;10.00;4.05;;;23.60;1.00;;;;;;5076282;28;20084;-26
2022/06/22 11:10:44;;;;;;;12.18;4.90;;;24.10;99.90;;;;;;5075701;28;20052;-26
2022/06/22 11:13:28;;;;;;;13.18;5.25;;;23.50;99.90;;;;;;5075574;28;20044;-26
2022/06/22 11:15:59;;;;;;;13.23;4.40;;;23.10;99.90;;;;;;5076140;28;20048;-26
2022/06/22 11:18:53;;;;;;;9.23;4.47;;;22.70;1.00;;;;;;5076120;28;20049;-26
2022/06/22 11:21:40;;;;;;;8.80;3.78;;;22.40;1.00;;;;;;5075359;28;20041;-26
2022/06/22 11:24:15;;;;;;;15.45;4.18;;;22.10;1.00;;;;;;5074129;28;20040;-26
2022/06/22 11:33:23;;;;;;;9.70;3.92;;;21.70;1.00;;;;;;5075113;28;20044;-26
2022/06/22 11:36:32;;;;;;;12.52;3.80;;;22.30;1.00;;;;;;5075127;28;20505;-26
2022/06/22 11:39:20;;;;;;;7.05;3.25;;;22.40;1.00;;;;;;5074405;28;20056;-26
2022/06/22 11:42:06;;;;;;;7.75;3.42;;;22.30;1.00;;;;;;5075094;28;20539;-26
2022/06/22 11:47:56;;;;;;;7.45;3.60;;;24.20;99.90;;;;;;5074908;28;20135;-26
2022/06/22 11:50:34;;;;;;;9.40;3.63;;;25.00;99.90;;;;;;5074783;28;20040;-26
2022/06/22 11:53:31;;;;;;;6.75;3.30;;;25.60;99.90;;;;;;5074663;28;20102;-26
2022/06/22 11:56:03;;;;;;;8.30;3.97;;;25.10;99.90;;;;;;5064997;28;20060;-26
2022/06/22 11:59:09;;;;;;;8.23;3.47;;;25.10;99.90;;;;;;5074962;28;20040;-26
2022/06/22 12:02:03;;;;;;;8.93;3.45;;;24.90;99.90;;;;;;5075430;28;20418;-26
2022/06/22 12:04:41;;;;;;;8.85;3.55;;;24.60;99.90;;;;;;5074903;28;20052;-27
2022/06/22 12:07:25;;;;;;;9.45;3.70;;;24.70;99.90;;;;;;5075131;28;20190;-27
2022/06/22 12:10:00;;;;;;;11.93;4.57;;;24.80;99.90;;;;;;5074459;28;20055;-27
2022/06/22 12:12:34;;;;;;;9.88;3.55;;;24.80;99.90;;;;;;5074616;28;20056;-27
2022/06/22 12:15:30;;;;;;;9.00;3.30;;;25.20;99.90;;;;;;5073048;28;20087;-27
2022/06/22 12:18:31;;;;;;;8.13;4.22;;;25.60;99.90;;;;;;5074877;28;20048;-26
2022/06/22 12:21:26;;;;;;;8.25;3.53;;;26.10;99.90;;;;;;5074256;28;20055;-26
2022/06/22 12:24:07;;;;;;;8.93;3.65;;;26.70;99.90;;;;;;5073277;28;20414;-27
2022/06/22 12:27:08;;;;;;;8.30;3.00;;;27.20;99.90;;;;;;5073884;28;20059;-27
2022/06/22 12:29:51;;;;;;;10.23;3.35;;;27.50;99.90;;;;;;5057330;28;20475;-27
2022/06/22 12:32:25;;;;;;;11.43;3.63;;;27.70;99.90;;;;;;5074060;28;20131;-26
2022/06/22 12:35:04;;;;;;;8.57;3.63;;;27.20;99.90;;;;;;5074501;28;20045;-26
2022/06/22 12:37:43;;;;;;;9.13;3.05;;;27.40;99.90;;;;;;5074090;28;20055;-26
2022/06/22 12:40:51;;;;;;;10.40;3.85;;;27.70;99.90;;;;;;5073940;28;20041;-27
2022/06/22 12:43:39;;;;;;;7.32;3.03;;;27.80;99.90;;;;;;5073977;28;20048;-27
2022/06/22 12:46:29;;;;;;;6.35;3.47;;;28.10;99.90;;;;;;5073735;28;20111;-27
2022/06/22 12:49:21;;;;;;;7.00;3.55;;;28.00;99.90;;;;;;5073847;28;20144;-27
2022/06/22 12:52:02;;;;;;;9.07;3.83;;;27.50;99.90;;;;;;5074345;28;20051;-28
2022/06/22 12:54:32;;;;;;;8.43;4.20;;;26.80;99.90;;;;;;5072999;28;20483;-26
2022/06/22 12:56:58;;;;;;;9.05;4.22;;;26.30;99.90;;;;;;5074560;28;20048;-27
2022/06/22 12:59:34;;;;;;;9.85;3.80;;;26.20;99.90;;;;;;5074030;28;20534;-27
2022/06/22 13:02:03;;;;;;;8.07;3.42;;;26.10;99.90;;;;;;5074488;28;20048;-26
2022/06/22 13:04:36;;;;;;;8.93;3.92;;;25.90;99.90;;;;;;5073981;28;20482;-27
2022/06/22 13:07:07;;;;;;;8.07;4.17;;;25.90;99.90;;;;;;5074370;28;20056;-26
2022/06/22 13:09:33;;;;;;;9.52;3.85;;;26.40;99.90;;;;;;5073987;28;20371;-26
2022/06/22 13:12:02;;;;;;;9.90;4.32;;;26.70;99.90;;;;;;5072886;28;20048;-27
2022/06/22 13:14:33;;;;;;;8.20;4.30;;;27.40;99.90;;;;;;5073450;28;20528;-26
2022/06/22 13:17:04;;;;;;;11.10;4.68;;;27.10;99.90;;;;;;5073583;28;20095;-26
2022/06/22 13:19:47;;;;;;;11.00;4.57;;;27.40;99.90;;;;;;5074102;28;20044;-27
2022/06/22 13:22:25;;;;;;;7.55;3.65;;;27.50;99.90;;;;;;5074160;28;20131;-26
2022/06/22 13:25:13;;;;;;;9.05;3.80;;;27.40;99.90;;;;;;5073533;28;20119;-26
2022/06/22 13:27:56;;;;;;;8.30;4.28;;;27.10;99.90;;;;;;5073452;28;20049;-27
2022/06/22 13:30:41;;;;;;;10.55;4.18;;;26.90;99.90;;;;;;5074027;28;20363;-26
2022/06/22 13:33:22;;;;;;;11.73;4.65;;;26.60;99.90;;;;;;5073668;28;20051;-27
2022/06/22 13:36:00;;;;;;;10.05;4.70;;;26.50;99.90;;;;;;5074246;28;20040;-26
2022/06/22 13:38:50;;;;;;;6.78;3.03;;;26.20;99.90;;;;;;5073380;28;20052;-26
2022/06/22 13:41:29;;;;;;;8.57;4.03;;;26.20;99.90;;;;;;5073642;28;20057;-27
2022/06/22 13:44:13;;;;;;;9.50;3.72;;;26.20;99.90;;;;;;5073029;28;20490;-27
2022/06/22 13:46:57;;;;;;;9.55;4.13;;;26.40;99.90;;;;;;5073195;28;20090;-27
2022/06/22 13:50:17;;;;;;;9.82;4.35;;;26.50;99.90;;;;;;5072233;28;20106;-27
2022/06/22 13:52:53;;;;;;;10.85;4.13;;;26.60;99.90;;;;;;5074007;28;20052;-27
2022/06/22 13:55:38;;;;;;;10.15;4.20;;;26.30;99.90;;;;;;5073227;28;20118;-27
2022/06/22 13:58:28;;;;;;;12.18;4.85;;;26.40;99.90;;;;;;5073180;28;20044;-27
2022/06/22 14:01:06;;;;;;;10.27;4.07;;;26.40;99.90;;;;;;5073999;28;20071;-27
2022/06/22 14:03:37;;;;;;;11.10;4.30;;;26.60;99.90;;;;;;5072779;28;20059;-26